createdAt,value
2019-02-21T00:01:07.481Z,6.37
2019-02-21T00:03:36.365Z,7.40
2019-02-21T00:06:05.268Z,6.95
2019-02-21T00:08:34.174Z,7.87
2019-02-21T00:11:03.006Z,8.50
2019-02-21T00:13:31.899Z,8.93
2019-02-21T00:16:00.822Z,8.80
2019-02-21T00:18:29.707Z,8.95
2019-02-21T00:20:58.537Z,8.90
2019-02-21T00:23:27.441Z,8.80
2019-02-21T00:25:56.285Z,9.23
2019-02-21T00:28:25.185Z,8.60
2019-02-21T00:30:54.078Z,8.33
2019-02-21T00:33:23.291Z,7.55
2019-02-21T00:35:52.143Z,9.00
2019-02-21T00:38:20.973Z,8.45
2019-02-21T00:40:50.779Z,9.23
2019-02-21T00:43:19.695Z,8.00
2019-02-21T00:45:48.540Z,9.08
2019-02-21T00:48:17.692Z,9.20
2019-02-21T00:50:46.567Z,8.83
2019-02-21T00:53:15.423Z,10.20
2019-02-21T00:55:44.364Z,10.00
2019-02-21T00:58:13.700Z,9.78
2019-02-21T01:00:46.423Z,9.73
2019-02-21T01:03:13.156Z,9.63
2019-02-21T01:05:42.253Z,11.20
2019-02-21T01:08:11.339Z,10.25
2019-02-21T01:10:40.292Z,9.90
2019-02-21T01:13:09.552Z,10.82
2019-02-21T01:15:38.441Z,10.68
2019-02-21T01:18:07.344Z,10.65
2019-02-21T01:20:36.176Z,11.97
2019-02-21T01:23:05.370Z,11.57
2019-02-21T01:25:34.204Z,12.15
2019-02-21T01:28:03.132Z,11.35
2019-02-21T01:30:32.272Z,11.60
2019-02-21T01:33:01.140Z,10.80
2019-02-21T01:35:30.044Z,11.40
2019-02-21T01:37:58.967Z,11.75
2019-02-21T01:40:27.984Z,12.28
2019-02-21T01:42:57.121Z,12.00
2019-02-21T01:45:26.110Z,11.87
2019-02-21T01:47:55.035Z,12.07
2019-02-21T01:50:23.857Z,13.40
2019-02-21T01:52:52.689Z,12.82
2019-02-21T01:55:21.643Z,13.60
2019-02-21T01:57:50.553Z,11.73
2019-02-21T02:00:19.866Z,12.55
2019-02-21T02:03:08.019Z,13.40
2019-02-21T02:05:36.884Z,14.60
2019-02-21T02:08:05.789Z,14.07
2019-02-21T02:10:35.111Z,20.80
2019-02-21T02:13:04.839Z,22.50
2019-02-21T02:15:33.816Z,23.05
2019-02-21T02:18:03.036Z,21.65
2019-02-21T02:20:32.216Z,21.07
2019-02-21T02:23:01.052Z,22.30
2019-02-21T02:29:11.215Z,22.10
2019-02-21T02:31:40.224Z,21.70
2019-02-21T02:34:09.486Z,20.25
2019-02-21T02:36:38.565Z,20.23
2019-02-21T02:39:08.196Z,22.13
2019-02-21T02:41:37.110Z,21.30
2019-02-21T02:44:06.127Z,21.73
2019-02-21T02:46:35.126Z,23.92
2019-02-21T02:49:04.190Z,24.00
2019-02-21T02:51:33.125Z,22.00
2019-02-21T02:54:02.293Z,20.45
2019-02-21T02:56:31.597Z,20.30
2019-02-21T02:59:00.888Z,18.90
2019-02-21T03:01:34.716Z,22.10
2019-02-21T03:04:00.603Z,21.80
2019-02-21T03:06:29.445Z,20.68
2019-02-21T03:08:58.452Z,20.90
2019-02-21T03:11:27.387Z,22.50
2019-02-21T03:13:56.602Z,22.90
2019-02-21T03:16:25.514Z,22.67
2019-02-21T03:18:54.452Z,22.30
2019-02-21T03:21:23.365Z,21.50
2019-02-21T03:23:52.308Z,22.00
2019-02-21T03:26:21.232Z,21.15
2019-02-21T03:28:50.405Z,21.50
2019-02-21T03:31:19.701Z,22.60
2019-02-21T03:33:48.679Z,21.60
2019-02-21T03:36:17.522Z,22.95
2019-02-21T03:38:46.706Z,20.60
2019-02-21T03:41:15.709Z,22.27
2019-02-21T03:43:45.009Z,21.50
2019-02-21T03:46:14.021Z,20.35
2019-02-21T03:48:43.201Z,21.77
2019-02-21T03:51:12.198Z,22.17
2019-02-21T03:53:41.474Z,22.30
2019-02-21T03:56:10.762Z,22.60
2019-02-21T03:58:39.777Z,23.77
2019-02-21T04:01:08.760Z,22.32
2019-02-21T04:03:37.766Z,22.27
2019-02-21T04:06:06.770Z,20.68
2019-02-21T04:08:35.721Z,21.70
2019-02-21T04:11:04.664Z,21.65
2019-02-21T04:13:33.840Z,22.70
2019-02-21T04:16:02.918Z,22.13
2019-02-21T04:18:32.129Z,22.27
2019-02-21T04:21:01.121Z,20.82
2019-02-21T04:23:30.044Z,22.10
2019-02-21T04:25:59.389Z,24.52
2019-02-21T04:28:29.160Z,23.10
2019-02-21T04:30:58.102Z,23.80
2019-02-21T04:33:27.063Z,24.47
2019-02-21T04:35:56.306Z,23.60
2019-02-21T04:38:25.185Z,24.80
2019-02-21T04:40:54.088Z,25.10
2019-02-21T04:43:23.019Z,25.80
2019-02-21T04:45:52.017Z,23.65
2019-02-21T04:48:21.025Z,25.00
2019-02-21T04:50:50.020Z,25.35
2019-02-21T04:53:18.869Z,23.40
2019-02-21T04:55:47.738Z,25.53
2019-02-21T04:58:16.645Z,23.12
2019-02-21T05:00:45.666Z,23.55
2019-02-21T05:03:14.522Z,23.32
2019-02-21T05:05:43.699Z,24.57
2019-02-21T05:08:12.617Z,24.80
2019-02-21T05:10:41.563Z,26.95
2019-02-21T05:13:10.497Z,25.77
2019-02-21T05:15:39.795Z,25.43
2019-02-21T05:18:08.651Z,25.27
2019-02-21T05:20:37.800Z,24.82
2019-02-21T05:23:06.700Z,25.60
2019-02-21T05:25:35.845Z,24.63
2019-02-21T05:28:22.809Z,25.03
2019-02-21T05:30:53.973Z,23.62
2019-02-21T05:33:46.718Z,25.68
2019-02-21T05:36:46.877Z,24.30
2019-02-21T05:39:37.341Z,25.92
2019-02-21T05:42:24.434Z,27.37
2019-02-21T05:45:17.100Z,26.65
2019-02-21T05:48:02.293Z,26.27
2019-02-21T05:50:36.417Z,26.50
2019-02-21T05:53:29.562Z,24.77
2019-02-21T05:56:33.009Z,25.70
2019-02-21T05:59:21.617Z,26.45
2019-02-21T06:02:12.382Z,21.20
2019-02-21T06:05:02.736Z,21.33
2019-02-21T06:07:49.577Z,18.47
2019-02-21T08:53:37.855Z,22.13
2019-02-21T08:56:07.143Z,22.50
2019-02-21T08:58:36.063Z,22.00
2019-02-21T09:01:05.180Z,22.20
2019-02-21T09:03:34.264Z,22.55
2019-02-21T09:06:03.270Z,20.70
2019-02-21T09:08:35.074Z,20.03
2019-02-21T09:11:04.080Z,19.90
2019-02-21T09:13:33.170Z,19.00
2019-02-21T09:16:02.178Z,20.70
2019-02-21T09:18:31.148Z,18.33
2019-02-21T09:21:00.144Z,20.30
2019-02-21T09:23:29.002Z,25.37
2019-02-21T09:25:58.000Z,21.03
2019-02-21T09:28:27.278Z,19.17
2019-02-21T09:30:56.925Z,18.83
2019-02-21T09:33:25.773Z,19.53
2019-02-21T09:35:56.792Z,19.50
2019-02-21T09:38:25.795Z,22.40
2019-02-21T09:40:54.833Z,22.00
2019-02-21T09:43:23.747Z,22.00
2019-02-21T09:45:53.197Z,23.07
2019-02-21T09:48:22.057Z,22.37
2019-02-21T09:50:51.106Z,22.15
2019-02-21T09:53:20.083Z,22.70
2019-02-21T09:55:50.444Z,22.30
2019-02-21T09:58:19.565Z,23.00
2019-02-21T10:00:48.518Z,21.42
2019-02-21T10:03:17.694Z,21.55
2019-02-21T10:05:46.910Z,19.60
2019-02-21T10:08:15.933Z,21.37
2019-02-21T10:10:44.933Z,20.60
2019-02-21T10:13:13.853Z,21.25
2019-02-21T10:15:42.930Z,20.50
2019-02-21T10:18:11.924Z,18.93
2019-02-21T10:20:40.881Z,19.55
2019-02-21T10:23:09.895Z,19.12
2019-02-21T10:25:38.822Z,18.07
2019-02-21T10:28:08.121Z,19.80
2019-02-21T10:30:37.158Z,18.63
2019-02-21T10:33:06.512Z,17.92
2019-02-21T10:35:35.817Z,16.80
2019-02-21T10:38:04.823Z,16.70
2019-02-21T10:40:34.100Z,17.07
2019-02-21T10:43:03.351Z,16.00
2019-02-21T10:45:32.313Z,13.80
2019-02-21T10:48:01.629Z,13.53
2019-02-21T10:50:30.909Z,15.80
2019-02-21T10:53:00.089Z,13.90
2019-02-21T10:55:29.181Z,13.10
2019-02-21T10:57:58.790Z,13.87
2019-02-21T11:00:29.129Z,15.23
2019-02-21T11:02:58.125Z,13.10
2019-02-21T11:05:27.428Z,13.73
2019-02-21T11:07:56.427Z,13.90
2019-02-21T11:10:26.775Z,12.50
2019-02-21T11:12:55.696Z,13.87
2019-02-21T11:15:25.313Z,12.97
2019-02-21T11:17:54.310Z,12.60
2019-02-21T11:20:23.706Z,11.67
2019-02-21T11:22:52.768Z,13.50
2019-02-21T11:25:22.101Z,13.87
2019-02-21T11:27:51.109Z,14.30
2019-02-21T11:30:20.105Z,15.13
2019-02-21T11:32:49.141Z,15.00
2019-02-21T11:35:18.201Z,14.13
2019-02-21T11:37:47.750Z,14.00
2019-02-21T11:40:16.885Z,15.80
2019-02-21T11:42:46.603Z,15.10
2019-02-21T11:45:16.609Z,14.70
2019-02-21T11:47:45.624Z,15.07
2019-02-21T11:50:15.775Z,15.70
2019-02-21T11:52:44.791Z,15.73
2019-02-21T11:55:16.592Z,16.33
2019-02-21T11:57:45.659Z,15.60
2019-02-21T12:00:20.241Z,15.70
2019-02-21T12:02:49.168Z,14.73
2019-02-21T12:05:30.211Z,13.80
2019-02-21T12:07:48.808Z,15.13
2019-02-21T12:10:18.438Z,15.57
2019-02-21T12:12:47.443Z,16.40
2019-02-21T12:15:16.560Z,15.90
2019-02-21T12:17:45.565Z,16.67
2019-02-21T12:20:15.293Z,15.27
2019-02-21T12:22:44.218Z,14.00
2019-02-21T12:25:14.482Z,14.70
2019-02-21T12:27:43.493Z,15.47
2019-02-21T12:30:14.719Z,13.10
2019-02-21T12:32:43.940Z,11.07
2019-02-21T12:35:13.274Z,12.70
2019-02-21T12:37:42.621Z,11.80
2019-02-21T12:40:13.856Z,12.17
2019-02-21T12:42:42.779Z,12.20
2019-02-21T12:45:13.597Z,11.87
2019-02-21T12:48:01.641Z,12.60
2019-02-21T12:50:30.754Z,11.60
2019-02-21T12:53:00.061Z,11.80
2019-02-21T12:55:31.715Z,10.47
2019-02-21T12:57:59.642Z,11.33
2019-02-21T13:00:28.562Z,10.67
2019-02-21T13:02:57.494Z,12.50
2019-02-21T13:05:26.417Z,12.80
2019-02-21T13:07:55.408Z,12.50
2019-02-21T13:10:24.736Z,13.03
2019-02-21T13:12:53.890Z,12.20
2019-02-21T13:15:41.982Z,8.93
2019-02-21T13:18:15.862Z,8.73
2019-02-21T13:20:41.613Z,10.53
2019-02-21T13:23:10.833Z,10.20
2019-02-21T13:25:39.818Z,9.50
2019-02-21T13:28:08.749Z,9.90
2019-02-21T13:30:37.716Z,8.70
2019-02-21T13:33:06.974Z,7.93
2019-02-21T13:35:35.894Z,8.60
2019-02-21T13:38:04.897Z,8.87
2019-02-21T13:40:33.765Z,8.20
2019-02-21T13:43:02.705Z,7.00
2019-02-21T13:45:31.718Z,8.17
2019-02-21T13:48:00.876Z,8.73
2019-02-21T13:50:29.805Z,8.10
2019-02-21T13:52:58.728Z,7.90
2019-02-21T13:55:28.010Z,7.90
2019-02-21T13:57:56.883Z,9.73
2019-02-21T14:00:25.880Z,8.93
2019-02-21T14:02:55.159Z,7.13
2019-02-21T14:05:24.101Z,8.13
2019-02-21T14:07:53.018Z,8.00
2019-02-21T14:10:22.025Z,7.70
2019-02-21T14:12:51.205Z,7.13
2019-02-21T14:15:22.164Z,8.00
2019-02-21T14:18:10.277Z,6.80
2019-02-21T14:20:45.342Z,7.57
2019-02-21T14:23:10.201Z,8.10
2019-02-21T14:25:41.046Z,7.17
2019-02-21T14:28:10.270Z,7.27
2019-02-21T14:30:39.192Z,7.40
2019-02-21T14:33:08.109Z,9.60
2019-02-21T14:35:37.037Z,8.40
2019-02-21T14:38:06.077Z,7.23
2019-02-21T14:40:35.568Z,7.00
2019-02-21T14:43:04.565Z,6.87
2019-02-21T14:45:33.859Z,7.10
2019-02-21T14:48:02.994Z,7.43
2019-02-21T14:50:31.999Z,12.03
2019-02-21T14:53:00.837Z,6.90
2019-02-21T14:55:30.297Z,8.27
2019-02-21T14:57:59.341Z,9.40
2019-02-21T15:00:28.369Z,14.57
2019-02-21T15:02:57.989Z,18.97
2019-02-21T15:05:27.631Z,18.70
2019-02-21T15:07:56.538Z,15.47
2019-02-21T15:10:25.554Z,18.07
2019-02-21T15:12:54.543Z,7.50
2019-02-21T15:15:23.552Z,6.87
2019-02-21T15:17:52.555Z,7.30
2019-02-21T15:20:21.561Z,6.47
2019-02-21T15:22:50.545Z,5.67
2019-02-21T15:25:19.536Z,6.20
2019-02-21T15:27:48.450Z,5.90
2019-02-21T15:30:18.666Z,7.73
2019-02-21T15:32:47.848Z,7.80
2019-02-21T15:35:19.322Z,7.50
2019-02-21T15:37:47.829Z,8.43
2019-02-21T15:40:17.085Z,8.13
2019-02-21T15:42:46.068Z,8.23
2019-02-21T15:45:22.808Z,8.00
2019-02-21T15:47:47.889Z,8.70
2019-02-21T15:50:19.760Z,10.20
2019-02-21T15:52:47.568Z,9.53
2019-02-21T15:55:17.008Z,9.60
2019-02-21T15:57:45.890Z,9.00
2019-02-21T16:00:16.487Z,9.13
2019-02-21T16:02:46.028Z,8.93
2019-02-21T16:05:15.332Z,9.50
2019-02-21T16:07:44.346Z,9.90
2019-02-21T16:10:15.620Z,9.77
2019-02-21T16:12:45.047Z,9.90
2019-02-21T16:15:16.454Z,10.13
2019-02-21T16:17:45.013Z,9.50
2019-02-21T16:20:14.494Z,9.80
2019-02-21T16:22:44.151Z,10.80
2019-02-21T16:25:15.314Z,10.17
2019-02-21T16:27:44.304Z,7.97
2019-02-21T16:30:13.336Z,9.93
2019-02-21T16:32:42.332Z,9.40
2019-02-21T16:35:11.689Z,9.43
2019-02-21T16:37:40.709Z,8.83
2019-02-21T16:40:11.070Z,8.53
2019-02-21T16:42:40.403Z,7.20
2019-02-21T16:45:10.634Z,8.63
2019-02-21T16:47:39.981Z,8.77
2019-02-21T16:50:09.853Z,9.43
2019-02-21T16:52:39.103Z,8.40
2019-02-21T16:55:10.189Z,7.63
2019-02-21T16:57:39.200Z,8.67
2019-02-21T17:00:09.834Z,7.47
2019-02-21T17:02:38.827Z,7.30
2019-02-21T17:05:08.763Z,7.17
2019-02-21T17:07:37.698Z,7.70
2019-02-21T17:10:07.417Z,7.17
2019-02-21T17:12:37.141Z,8.40
2019-02-21T17:15:06.636Z,7.93
2019-02-21T17:17:35.648Z,7.90
2019-02-21T17:20:05.335Z,6.80
2019-02-21T17:22:34.346Z,7.30
2019-02-21T17:25:03.339Z,6.93
2019-02-21T17:27:32.864Z,6.87
2019-02-21T17:30:01.803Z,6.70
2019-02-21T17:32:30.802Z,7.40
2019-02-21T17:34:59.738Z,6.83
2019-02-21T17:37:28.932Z,8.80
2019-02-21T17:39:57.870Z,10.87
2019-02-21T17:42:26.807Z,10.80
2019-02-21T17:44:55.730Z,8.27
2019-02-21T17:47:43.845Z,10.60
2019-02-21T17:50:13.611Z,8.27
2019-02-21T17:52:42.889Z,7.27
2019-02-21T17:55:12.498Z,7.80
2019-02-21T17:57:41.518Z,9.30
2019-02-21T18:00:13.350Z,9.03
2019-02-21T18:02:42.653Z,10.07
2019-02-21T18:05:11.666Z,10.50
2019-02-21T18:07:40.602Z,10.60
2019-02-21T18:10:11.688Z,10.03
2019-02-21T18:12:40.676Z,8.73
2019-02-21T18:15:09.995Z,8.47
2019-02-21T18:17:39.168Z,8.20
2019-02-21T18:20:09.023Z,9.27
2019-02-21T18:22:38.099Z,11.57
2019-02-21T18:25:10.777Z,10.87
2019-02-21T18:27:39.701Z,9.47
2019-02-21T18:30:10.098Z,9.77
2019-02-21T18:32:39.407Z,9.40
2019-02-21T18:35:08.849Z,9.57
2019-02-21T18:37:46.972Z,8.60
2019-02-21T18:40:17.203Z,7.97
2019-02-21T18:42:41.280Z,7.77
2019-02-21T18:45:10.413Z,8.83
2019-02-21T18:47:39.724Z,8.93
2019-02-21T18:50:09.409Z,8.30
2019-02-21T18:52:38.420Z,9.37
2019-02-21T18:55:07.546Z,9.17
2019-02-21T18:57:36.913Z,9.20
2019-02-21T19:00:08.381Z,8.13
2019-02-21T19:02:37.294Z,8.60
2019-02-21T19:05:06.841Z,8.03
2019-02-21T19:07:36.377Z,7.57
2019-02-21T23:45:56.811Z,13.90
2019-02-21T23:48:25.812Z,19.82
2019-02-21T23:50:54.757Z,18.77
2019-02-21T23:53:23.665Z,20.08
2019-02-21T23:55:52.583Z,20.77
2019-02-21T23:58:21.589Z,20.08
